createdAt,value
2018-12-18T00:03:47.048Z,15.37
2018-12-18T00:08:25.760Z,12.20
2018-12-18T00:13:04.542Z,10.07
2018-12-18T00:17:43.471Z,9.90
2018-12-18T00:22:22.196Z,7.10
2018-12-18T00:27:00.985Z,6.33
2018-12-18T00:31:39.784Z,7.00
2018-12-18T00:36:18.584Z,5.40
2018-12-18T00:40:57.439Z,7.03
2018-12-18T00:45:36.584Z,7.40
2018-12-18T00:50:15.295Z,11.10
2018-12-18T00:54:54.063Z,13.53
2018-12-18T00:59:32.827Z,11.30
2018-12-18T01:04:11.517Z,7.37
2018-12-18T01:08:50.363Z,6.43
2018-12-18T01:13:29.104Z,6.13
2018-12-18T01:18:07.825Z,6.77
2018-12-18T01:22:46.496Z,5.83
2018-12-18T01:27:25.128Z,5.70
2018-12-18T01:32:03.859Z,5.93
2018-12-18T01:36:42.568Z,5.97
2018-12-18T01:41:21.323Z,5.80
2018-12-18T01:46:00.053Z,6.17
2018-12-18T01:50:38.881Z,5.90
2018-12-18T01:55:17.762Z,6.77
2018-12-18T01:59:56.432Z,7.43
2018-12-18T02:04:35.224Z,9.03
2018-12-18T02:09:14.096Z,8.10
2018-12-18T02:13:52.860Z,8.70
2018-12-18T02:18:31.696Z,10.07
2018-12-18T02:23:10.572Z,10.10
2018-12-18T02:27:49.292Z,10.57
2018-12-18T02:32:27.948Z,10.93
2018-12-18T02:37:06.576Z,11.43
2018-12-18T02:41:45.432Z,11.37
2018-12-18T02:46:24.243Z,10.60
2018-12-18T02:51:03.089Z,11.10
2018-12-18T02:55:41.763Z,10.17
2018-12-18T03:00:20.652Z,11.53
2018-12-18T03:04:59.693Z,9.63
2018-12-18T03:09:38.405Z,9.23
2018-12-18T03:14:17.177Z,9.43
2018-12-18T03:18:55.900Z,9.73
2018-12-18T03:23:34.749Z,22.80
2018-12-18T03:28:13.515Z,18.40
2018-12-18T03:32:52.521Z,8.67
2018-12-18T03:37:31.385Z,9.97
2018-12-18T03:42:10.239Z,7.97
2018-12-18T03:46:48.883Z,7.33
2018-12-18T03:51:27.531Z,7.33
2018-12-18T03:56:06.174Z,7.47
2018-12-18T04:00:44.932Z,8.43
2018-12-18T04:05:23.732Z,8.33
2018-12-18T04:10:02.505Z,8.40
2018-12-18T04:14:41.208Z,7.70
2018-12-18T04:19:20.142Z,8.20
2018-12-18T04:23:58.897Z,8.80
2018-12-18T04:28:38.062Z,9.60
2018-12-18T04:33:16.643Z,9.50
2018-12-18T04:37:55.458Z,10.40
2018-12-18T04:42:34.107Z,12.43
2018-12-18T04:47:12.920Z,23.53
2018-12-18T04:51:51.582Z,11.80
2018-12-18T04:56:30.489Z,11.53
2018-12-18T05:01:09.205Z,21.77
2018-12-18T05:05:47.958Z,20.47
2018-12-18T05:10:27.386Z,14.40
2018-12-18T05:15:06.426Z,12.83
2018-12-18T05:19:45.054Z,12.27
2018-12-18T05:24:23.712Z,12.93
2018-12-18T05:29:02.571Z,14.60
2018-12-18T05:33:41.324Z,17.23
2018-12-18T05:38:20.236Z,15.97
2018-12-18T05:42:59.079Z,17.03
2018-12-18T05:47:38.003Z,16.10
2018-12-18T05:52:16.911Z,15.43
2018-12-18T05:56:55.631Z,19.23
2018-12-18T06:01:34.484Z,20.87
2018-12-18T06:06:13.179Z,28.50
2018-12-18T06:10:52.259Z,46.03
2018-12-18T06:15:31.128Z,24.17
2018-12-18T06:20:09.961Z,19.43
2018-12-18T06:24:48.774Z,19.83
2018-12-18T06:29:27.671Z,17.73
2018-12-18T06:34:06.589Z,15.47
2018-12-18T06:38:45.225Z,16.77
2018-12-18T06:43:23.979Z,18.70
2018-12-18T06:48:02.784Z,17.80
2018-12-18T06:52:41.692Z,17.93
2018-12-18T06:57:20.497Z,25.47
2018-12-18T07:01:59.161Z,20.83
2018-12-18T07:06:37.843Z,17.07
2018-12-18T07:11:16.744Z,16.07
2018-12-18T07:15:55.611Z,14.87
2018-12-18T07:20:34.399Z,34.27
2018-12-18T07:25:13.328Z,34.03
2018-12-18T07:29:52.289Z,16.13
2018-12-18T07:34:33.491Z,13.37
2018-12-18T07:39:12.003Z,12.60
2018-12-18T07:43:50.755Z,12.67
2018-12-18T07:48:29.492Z,12.33
2018-12-18T07:53:08.328Z,13.63
2018-12-18T07:57:47.245Z,13.47
2018-12-18T08:02:26.083Z,18.03
2018-12-18T08:07:04.708Z,19.53
2018-12-18T08:11:43.516Z,16.73
2018-12-18T08:16:22.351Z,25.97
2018-12-18T08:21:00.996Z,15.80
2018-12-18T08:25:39.803Z,13.97
2018-12-18T08:30:18.507Z,13.57
2018-12-18T08:34:57.371Z,14.43
2018-12-18T08:39:36.080Z,14.30
2018-12-18T08:44:15.048Z,15.03
2018-12-18T08:48:53.727Z,14.50
2018-12-18T08:53:32.491Z,13.43
2018-12-18T08:58:11.267Z,12.63
2018-12-18T09:02:50.053Z,12.80
2018-12-18T09:07:28.745Z,11.23
2018-12-18T09:12:09.476Z,12.27
2018-12-18T09:16:53.896Z,11.97
2018-12-18T09:21:32.768Z,12.70
2018-12-18T09:26:11.397Z,14.83
2018-12-18T09:30:50.217Z,15.77
2018-12-18T09:35:29.041Z,20.37
2018-12-18T09:40:10.412Z,16.00
2018-12-18T09:44:49.204Z,16.07
2018-12-18T09:49:28.001Z,17.03
2018-12-18T09:54:06.742Z,15.73
2018-12-18T09:58:45.458Z,15.83
2018-12-18T10:03:24.293Z,16.57
2018-12-18T10:08:03.076Z,16.80
2018-12-18T10:12:45.425Z,15.67
2018-12-18T10:17:24.508Z,17.40
2018-12-18T10:22:03.301Z,17.47
2018-12-18T10:26:42.173Z,17.37
2018-12-18T10:31:20.840Z,16.50
2018-12-18T10:36:02.930Z,17.40
2018-12-18T10:40:40.508Z,16.10
2018-12-18T10:45:19.359Z,16.53
2018-12-18T10:49:58.053Z,19.23
2018-12-18T10:54:36.694Z,19.40
2018-12-18T10:59:15.359Z,19.03
2018-12-18T11:03:54.127Z,34.57
2018-12-18T11:08:32.728Z,24.83
2018-12-18T11:13:16.499Z,20.63
2018-12-18T11:17:55.323Z,15.93
2018-12-18T11:22:34.107Z,13.27
2018-12-18T11:27:12.996Z,10.37
2018-12-18T11:31:51.775Z,10.13
2018-12-18T11:36:30.473Z,6.30
2018-12-18T11:41:09.260Z,8.37
2018-12-18T11:45:48.080Z,6.67
2018-12-18T11:50:26.824Z,4.40
2018-12-18T11:55:05.704Z,4.57
2018-12-18T11:59:44.424Z,3.80
2018-12-18T12:04:23.272Z,3.33
2018-12-18T12:09:02.089Z,3.90
2018-12-18T12:13:40.744Z,3.43
2018-12-18T12:18:19.532Z,2.77
2018-12-18T12:22:58.312Z,2.50
2018-12-18T12:32:48.294Z,2.20
2018-12-18T12:37:27.080Z,2.50
2018-12-18T12:42:05.800Z,2.30
2018-12-18T12:46:44.476Z,2.37
2018-12-18T12:51:23.384Z,2.40
2018-12-18T12:56:02.085Z,1.90
2018-12-18T13:00:40.814Z,2.40
2018-12-18T13:05:19.556Z,2.43
2018-12-18T13:09:58.396Z,2.13
2018-12-18T13:14:37.336Z,2.63
2018-12-18T13:19:16.203Z,2.80
2018-12-18T13:23:54.982Z,3.30
2018-12-18T13:28:33.627Z,3.03
2018-12-18T13:33:12.393Z,3.50
2018-12-18T13:37:51.325Z,2.50
2018-12-18T13:42:30.232Z,2.47
2018-12-18T13:47:09.851Z,2.50
2018-12-18T13:51:48.560Z,2.80
2018-12-18T13:56:27.279Z,2.40
2018-12-18T14:01:06.870Z,2.60
2018-12-18T14:05:46.050Z,2.67
2018-12-18T14:10:24.905Z,2.93
2018-12-18T14:15:04.348Z,3.37
2018-12-18T14:19:43.086Z,2.90
2018-12-18T14:24:21.786Z,2.80
2018-12-18T14:29:01.377Z,2.67
2018-12-18T14:33:41.175Z,3.13
2018-12-18T14:38:19.971Z,3.10
2018-12-18T14:42:58.757Z,3.20
2018-12-18T14:47:42.351Z,2.97
2018-12-18T14:52:25.026Z,3.10
2018-12-18T14:57:08.989Z,2.90
2018-12-18T15:01:51.096Z,3.20
2018-12-18T15:06:29.860Z,2.90
2018-12-18T15:11:09.253Z,4.03
2018-12-18T15:15:48.463Z,4.63
2018-12-18T15:20:27.287Z,4.00
2018-12-18T15:25:06.468Z,8.50
2018-12-18T15:29:45.705Z,8.43
2018-12-18T15:34:24.798Z,5.03
2018-12-18T15:39:05.985Z,5.20
2018-12-18T15:43:44.797Z,12.97
2018-12-18T15:48:24.035Z,16.87
2018-12-18T15:53:04.720Z,16.87
2018-12-18T15:57:55.363Z,8.50
2018-12-18T16:02:34.112Z,7.57
2018-12-18T16:07:16.091Z,4.77
2018-12-18T16:11:55.070Z,6.53
2018-12-18T16:16:33.902Z,13.03
2018-12-18T16:21:14.413Z,13.37
2018-12-18T16:25:53.222Z,16.30
2018-12-18T16:30:32.085Z,9.43
2018-12-18T16:35:11.231Z,8.90
2018-12-18T16:39:50.794Z,11.70
2018-12-18T16:44:29.775Z,11.30
2018-12-18T16:49:10.826Z,41.30
2018-12-18T16:53:49.683Z,25.97
2018-12-18T16:58:28.811Z,22.23
2018-12-18T17:03:10.511Z,17.80
2018-12-18T17:07:49.278Z,23.87
2018-12-18T17:12:28.400Z,16.03
2018-12-18T17:17:07.287Z,19.17
2018-12-18T17:21:46.010Z,27.70
2018-12-18T17:26:24.735Z,21.57
2018-12-18T17:31:03.603Z,17.87
2018-12-18T17:35:43.707Z,19.93
2018-12-18T17:40:22.491Z,14.50
2018-12-18T17:45:01.225Z,11.33
2018-12-18T17:49:40.326Z,13.37
2018-12-18T17:54:20.191Z,13.80
2018-12-18T17:58:59.024Z,18.60
2018-12-18T18:03:39.828Z,22.10
2018-12-18T18:08:18.986Z,20.77
2018-12-18T18:12:57.837Z,19.37
2018-12-18T18:17:36.710Z,48.50
2018-12-18T18:22:15.487Z,40.13
2018-12-18T18:26:54.304Z,46.13
2018-12-18T18:31:33.862Z,34.87
2018-12-18T18:36:14.714Z,29.47
2018-12-18T18:40:53.866Z,27.70
2018-12-18T18:45:32.876Z,16.07
2018-12-18T18:50:11.597Z,38.07
2018-12-18T18:54:50.496Z,23.47
2018-12-18T18:59:29.388Z,19.00
2018-12-18T19:04:08.376Z,17.70
2018-12-18T19:08:47.220Z,23.33
2018-12-18T19:13:25.993Z,26.23
2018-12-18T19:18:06.230Z,23.10
2018-12-18T19:22:45.191Z,25.07
2018-12-18T19:27:24.204Z,20.70
2018-12-18T19:32:03.333Z,19.23
2018-12-18T19:36:42.292Z,21.77
2018-12-18T19:41:21.239Z,16.80
2018-12-18T19:46:00.281Z,16.33
2018-12-18T19:50:39.080Z,14.27
2018-12-18T19:55:18.601Z,32.07
2018-12-18T19:59:57.688Z,28.30
2018-12-18T20:04:36.904Z,32.17
2018-12-18T20:09:15.869Z,20.10
2018-12-18T20:13:54.580Z,14.87
2018-12-18T20:18:35.112Z,11.97
2018-12-18T20:23:15.420Z,14.87
2018-12-18T20:27:55.565Z,15.87
2018-12-18T20:32:34.959Z,16.43
2018-12-18T20:37:18.197Z,17.83
2018-12-18T20:41:56.291Z,16.33
2018-12-18T20:46:35.254Z,15.73
2018-12-18T20:51:16.027Z,21.23
2018-12-18T20:55:55.668Z,24.43
2018-12-18T21:00:34.602Z,21.37
2018-12-18T21:05:14.259Z,17.93
2018-12-18T21:09:53.145Z,14.37
2018-12-18T21:14:31.943Z,13.67
2018-12-18T21:19:11.123Z,16.67
2018-12-18T21:23:50.756Z,19.00
2018-12-18T21:28:29.703Z,19.37
2018-12-18T21:33:08.428Z,20.77
2018-12-18T21:37:47.828Z,33.00
2018-12-18T21:42:26.803Z,31.50
2018-12-18T21:47:05.664Z,30.93
2018-12-18T21:51:44.834Z,31.70
2018-12-18T21:56:23.562Z,28.47
2018-12-18T22:01:02.518Z,32.47
2018-12-18T22:05:41.994Z,22.87
2018-12-18T22:10:21.258Z,21.40
2018-12-18T22:15:01.293Z,17.90
2018-12-18T22:19:40.226Z,33.03
2018-12-18T22:24:18.982Z,24.10
2018-12-18T22:28:58.053Z,22.03
2018-12-18T22:33:36.680Z,24.20
2018-12-18T22:38:16.847Z,22.07
2018-12-18T22:42:55.850Z,20.33
2018-12-18T22:47:34.675Z,18.07
2018-12-18T22:52:15.114Z,12.43
2018-12-18T22:56:56.296Z,16.93
2018-12-18T23:01:38.080Z,15.60
2018-12-18T23:06:16.677Z,13.47
2018-12-18T23:10:55.405Z,17.83
2018-12-18T23:15:34.100Z,16.73
2018-12-18T23:20:12.912Z,22.07
2018-12-18T23:24:51.671Z,19.70
2018-12-18T23:29:30.643Z,26.17
2018-12-18T23:34:09.469Z,19.20
2018-12-18T23:38:48.995Z,16.20
2018-12-18T23:43:27.706Z,15.73
2018-12-18T23:48:06.562Z,12.20
2018-12-18T23:52:45.314Z,14.60
2018-12-18T23:57:24.137Z,14.33
